createdAt,value
2018-12-14T00:02:09.782Z,5.53
2018-12-14T00:04:37.271Z,4.10
2018-12-14T00:07:04.782Z,4.40
2018-12-14T00:09:32.292Z,3.87
2018-12-14T00:11:59.779Z,4.27
2018-12-14T00:14:27.273Z,6.53
2018-12-14T00:16:54.773Z,4.50
2018-12-14T00:19:22.253Z,4.37
2018-12-14T00:21:49.750Z,4.50
2018-12-14T00:24:17.247Z,4.27
2018-12-14T00:26:44.744Z,5.10
2018-12-14T00:29:12.244Z,4.43
2018-12-14T00:31:39.758Z,5.53
2018-12-14T00:34:07.322Z,4.00
2018-12-14T00:36:34.836Z,5.63
2018-12-14T00:39:03.829Z,3.87
2018-12-14T00:41:31.315Z,4.13
2018-12-14T00:43:58.815Z,4.27
2018-12-14T00:46:26.390Z,3.83
2018-12-14T00:48:53.873Z,4.27
2018-12-14T00:51:21.568Z,3.80
2018-12-14T00:53:49.051Z,3.80
2018-12-14T00:56:16.543Z,3.47
2018-12-14T00:58:44.048Z,4.63
2018-12-14T01:01:11.550Z,4.10
2018-12-14T01:03:39.185Z,4.90
2018-12-14T01:06:06.697Z,4.37
2018-12-14T01:08:34.192Z,4.73
2018-12-14T01:11:01.685Z,4.23
2018-12-14T01:13:29.177Z,3.70
2018-12-14T01:15:56.750Z,4.30
2018-12-14T01:18:24.345Z,3.70
2018-12-14T01:20:59.154Z,3.60
2018-12-14T01:23:26.648Z,3.97
2018-12-14T01:25:54.133Z,4.40
2018-12-14T01:28:21.622Z,4.87
2018-12-14T01:30:49.135Z,7.23
2018-12-14T01:33:16.637Z,7.83
2018-12-14T01:35:44.127Z,5.30
2018-12-14T01:38:11.622Z,7.83
2018-12-14T01:40:39.121Z,8.37
2018-12-14T01:43:06.615Z,9.37
2018-12-14T01:45:34.169Z,9.17
2018-12-14T01:48:01.647Z,9.47
2018-12-14T01:50:29.140Z,10.87
2018-12-14T01:52:56.712Z,10.73
2018-12-14T01:55:24.328Z,10.27
2018-12-14T01:57:51.814Z,11.67
2018-12-14T02:00:19.316Z,10.43
2018-12-14T02:02:46.845Z,11.53
2018-12-14T02:05:14.334Z,8.10
2018-12-14T02:07:41.837Z,6.90
2018-12-14T02:10:09.332Z,6.70
2018-12-14T02:12:36.820Z,5.87
2018-12-14T02:15:05.072Z,7.33
2018-12-14T02:17:32.563Z,9.40
2018-12-14T02:20:00.075Z,10.33
2018-12-14T02:22:27.560Z,10.80
2018-12-14T02:24:55.101Z,8.83
2018-12-14T02:27:22.675Z,6.87
2018-12-14T02:29:50.169Z,12.47
2018-12-14T02:32:17.659Z,16.57
2018-12-14T02:34:45.153Z,18.63
2018-12-14T02:37:12.660Z,15.50
2018-12-14T02:39:40.155Z,13.30
2018-12-14T02:42:07.722Z,8.20
2018-12-14T02:44:35.230Z,8.00
2018-12-14T02:47:02.714Z,6.83
2018-12-14T02:49:30.207Z,4.67
2018-12-14T02:51:57.705Z,5.07
2018-12-14T02:54:25.255Z,5.63
2018-12-14T02:56:52.755Z,4.53
2018-12-14T02:59:20.604Z,4.87
2018-12-14T03:01:48.129Z,4.77
2018-12-14T03:04:15.614Z,4.47
2018-12-14T03:06:43.118Z,4.53
2018-12-14T03:09:10.612Z,4.37
2018-12-14T03:11:38.163Z,4.03
2018-12-14T03:14:05.656Z,4.63
2018-12-14T03:16:33.131Z,5.63
2018-12-14T03:19:00.617Z,5.50
2018-12-14T03:21:28.123Z,5.73
2018-12-14T03:23:55.609Z,5.00
2018-12-14T03:26:23.094Z,4.53
2018-12-14T03:28:50.610Z,4.97
2018-12-14T03:31:18.111Z,5.67
2018-12-14T03:33:45.583Z,4.80
2018-12-14T03:36:13.087Z,4.37
2018-12-14T03:38:40.583Z,4.37
2018-12-14T03:41:08.084Z,4.67
2018-12-14T03:43:35.643Z,6.53
2018-12-14T03:46:03.147Z,8.20
2018-12-14T03:48:30.766Z,12.83
2018-12-14T03:50:58.305Z,12.37
2018-12-14T03:53:25.818Z,10.33
2018-12-14T03:55:53.313Z,9.93
2018-12-14T03:58:20.809Z,7.07
2018-12-14T04:00:48.445Z,7.57
2018-12-14T04:03:16.225Z,6.57
2018-12-14T04:05:43.714Z,5.33
2018-12-14T04:08:11.230Z,4.80
2018-12-14T04:10:38.729Z,4.07
2018-12-14T04:13:06.230Z,4.33
2018-12-14T04:15:33.970Z,4.03
2018-12-14T04:18:01.535Z,3.60
2018-12-14T04:20:29.071Z,3.47
2018-12-14T04:22:56.562Z,3.97
2018-12-14T04:25:24.112Z,3.67
2018-12-14T04:27:51.597Z,3.60
2018-12-14T04:30:19.087Z,4.57
2018-12-14T04:32:46.631Z,5.83
2018-12-14T04:35:14.123Z,3.67
2018-12-14T04:37:41.622Z,3.90
2018-12-14T04:40:09.110Z,4.20
2018-12-14T04:42:36.885Z,6.03
2018-12-14T04:45:05.188Z,7.70
2018-12-14T04:47:32.691Z,8.13
2018-12-14T04:50:00.187Z,10.93
2018-12-14T04:52:27.676Z,11.77
2018-12-14T04:54:55.251Z,10.27
2018-12-14T04:57:22.765Z,10.43
2018-12-14T04:59:50.260Z,9.63
2018-12-14T05:02:17.749Z,10.47
2018-12-14T05:04:45.246Z,10.43
2018-12-14T05:07:12.851Z,11.50
2018-12-14T05:09:40.343Z,9.63
2018-12-14T05:12:07.834Z,10.93
2018-12-14T05:14:35.609Z,9.73
2018-12-14T05:17:03.091Z,9.77
2018-12-14T05:19:30.759Z,10.30
2018-12-14T05:21:58.551Z,11.93
2018-12-14T05:24:26.062Z,9.70
2018-12-14T05:26:54.522Z,9.40
2018-12-14T05:29:22.016Z,5.73
2018-12-14T05:31:49.510Z,5.73
2018-12-14T05:34:17.003Z,7.47
2018-12-14T05:36:44.491Z,9.73
2018-12-14T05:39:12.079Z,7.23
2018-12-14T05:41:39.579Z,7.40
2018-12-14T05:44:07.076Z,5.90
2018-12-14T05:46:34.557Z,5.93
2018-12-14T05:49:02.043Z,5.47
2018-12-14T05:51:29.530Z,5.37
2018-12-14T05:53:57.032Z,4.67
2018-12-14T05:56:25.288Z,6.87
2018-12-14T05:58:52.786Z,5.40
2018-12-14T06:01:20.278Z,6.77
2018-12-14T06:03:47.838Z,7.33
2018-12-14T06:06:15.330Z,7.17
2018-12-14T06:08:42.810Z,6.03
2018-12-14T06:11:10.307Z,5.47
2018-12-14T06:13:37.798Z,4.43
2018-12-14T06:16:05.290Z,6.80
2018-12-14T06:18:33.367Z,4.43
2018-12-14T06:21:00.982Z,5.40
2018-12-14T06:23:28.470Z,5.07
2018-12-14T06:25:55.952Z,5.23
2018-12-14T06:28:23.465Z,5.70
2018-12-14T06:30:50.968Z,4.37
2018-12-14T06:33:18.479Z,5.23
2018-12-14T06:35:45.971Z,7.00
2018-12-14T06:38:13.461Z,6.43
2018-12-14T06:40:40.977Z,4.63
2018-12-14T06:43:08.467Z,5.93
2018-12-14T06:45:35.959Z,4.87
2018-12-14T06:48:03.452Z,4.53
2018-12-14T06:50:31.906Z,4.50
2018-12-14T06:53:00.646Z,6.30
2018-12-14T06:55:28.259Z,6.70
2018-12-14T06:57:55.766Z,5.37
2018-12-14T07:00:23.263Z,7.00
2018-12-14T07:02:50.811Z,7.17
2018-12-14T07:05:18.316Z,8.33
2018-12-14T07:07:45.824Z,10.57
2018-12-14T07:10:13.409Z,8.83
2018-12-14T07:12:40.934Z,9.47
2018-12-14T07:15:08.599Z,9.47
2018-12-14T07:17:36.203Z,9.50
2018-12-14T07:20:05.546Z,8.47
2018-12-14T07:22:33.103Z,8.30
2018-12-14T07:25:00.622Z,7.27
2018-12-14T07:27:28.110Z,8.33
2018-12-14T07:29:55.608Z,4.87
2018-12-14T07:32:23.092Z,4.73
2018-12-14T07:34:50.578Z,4.60
2018-12-14T07:37:18.066Z,3.80
2018-12-14T07:39:45.546Z,3.10
2018-12-14T07:42:13.035Z,3.60
2018-12-14T07:44:40.794Z,3.27
2018-12-14T07:47:11.641Z,3.07
2018-12-14T07:49:37.958Z,3.40
2018-12-14T07:52:05.518Z,3.40
2018-12-14T07:54:33.105Z,3.37
2018-12-14T07:57:00.641Z,4.47
2018-12-14T07:59:28.167Z,3.33
2018-12-14T08:01:55.646Z,3.07
2018-12-14T08:04:23.231Z,3.03
2018-12-14T08:06:50.729Z,4.03
2018-12-14T08:09:18.879Z,3.00
2018-12-14T08:11:46.369Z,4.47
2018-12-14T08:14:13.871Z,3.27
2018-12-14T08:16:41.358Z,3.47
2018-12-14T08:19:08.849Z,3.50
2018-12-14T08:21:36.330Z,3.80
2018-12-14T08:24:03.836Z,5.13
2018-12-14T08:26:31.337Z,4.10
2018-12-14T08:28:58.830Z,5.03
2018-12-14T08:31:26.324Z,4.80
2018-12-14T08:33:53.829Z,4.27
2018-12-14T08:36:21.331Z,3.40
2018-12-14T08:38:48.831Z,3.70
2018-12-14T08:41:16.322Z,3.90
2018-12-14T08:43:43.809Z,4.00
2018-12-14T08:46:11.314Z,3.83
2018-12-14T08:48:38.811Z,3.50
2018-12-14T08:51:06.291Z,3.47
2018-12-14T08:53:35.420Z,3.77
2018-12-14T08:56:02.901Z,4.13
2018-12-14T08:58:30.392Z,4.30
2018-12-14T09:00:57.875Z,3.67
2018-12-14T09:03:25.356Z,3.83
2018-12-14T09:05:52.888Z,3.50
2018-12-14T09:08:20.383Z,3.63
2018-12-14T09:10:47.877Z,3.87
2018-12-14T09:13:16.027Z,3.17
2018-12-14T09:15:43.512Z,4.50
2018-12-14T09:18:10.994Z,4.73
2018-12-14T09:20:38.484Z,4.30
2018-12-14T09:23:06.654Z,4.43
2018-12-14T09:25:34.151Z,4.07
2018-12-14T09:28:01.650Z,4.10
2018-12-14T09:30:29.187Z,5.70
2018-12-14T09:32:56.681Z,3.77
2018-12-14T09:35:24.228Z,3.97
2018-12-14T09:37:51.718Z,4.00
2018-12-14T09:40:19.208Z,3.23
2018-12-14T09:42:46.745Z,3.73
2018-12-14T09:45:14.720Z,3.83
2018-12-14T09:47:42.210Z,3.67
2018-12-14T09:50:09.783Z,4.03
2018-12-14T09:52:37.283Z,6.17
2018-12-14T09:55:05.153Z,3.90
2018-12-14T09:57:32.638Z,3.10
2018-12-14T10:00:00.131Z,3.90
2018-12-14T10:02:27.607Z,3.80
2018-12-14T10:04:55.109Z,3.50
2018-12-14T10:07:22.607Z,4.80
2018-12-14T10:09:50.099Z,3.73
2018-12-14T10:12:17.582Z,4.20
2018-12-14T10:14:45.151Z,4.03
2018-12-14T10:17:12.642Z,4.63
2018-12-14T10:19:40.219Z,3.70
2018-12-14T10:22:07.732Z,5.30
2018-12-14T10:24:35.230Z,3.73
2018-12-14T10:27:02.715Z,4.47
2018-12-14T10:29:30.213Z,3.90
2018-12-14T10:31:57.711Z,4.73
2018-12-14T10:34:25.186Z,5.23
2018-12-14T10:36:52.744Z,4.87
2018-12-14T10:39:20.237Z,4.03
2018-12-14T10:41:47.739Z,5.07
2018-12-14T10:44:15.250Z,4.70
2018-12-14T10:46:42.741Z,4.20
2018-12-14T10:49:10.234Z,5.03
2018-12-14T10:51:37.813Z,4.57
2018-12-14T10:54:05.376Z,4.30
2018-12-14T10:56:32.872Z,4.83
2018-12-14T10:59:00.367Z,5.53
2018-12-14T11:01:33.447Z,4.30
2018-12-14T11:04:01.050Z,4.10
2018-12-14T11:06:28.544Z,6.27
2018-12-14T11:08:56.036Z,5.33
2018-12-14T11:11:23.521Z,5.53
2018-12-14T11:13:51.060Z,4.30
2018-12-14T11:16:18.561Z,4.73
2018-12-14T11:18:46.053Z,5.37
2018-12-14T11:21:13.551Z,4.43
2018-12-14T11:23:41.116Z,4.17
2018-12-14T11:26:08.616Z,4.63
2018-12-14T11:28:36.182Z,5.20
2018-12-14T11:31:03.748Z,4.13
2018-12-14T11:33:31.261Z,4.77
2018-12-14T11:35:58.787Z,4.40
2018-12-14T11:38:26.288Z,4.83
2018-12-14T11:40:53.783Z,4.70
2018-12-14T11:43:21.262Z,4.67
2018-12-14T11:45:48.754Z,6.10
2018-12-14T11:48:16.264Z,4.87
2018-12-14T11:50:43.846Z,6.10
2018-12-14T11:53:13.304Z,4.33
2018-12-14T11:55:40.802Z,4.87
2018-12-14T11:58:08.290Z,4.73
2018-12-14T12:00:35.780Z,4.77
2018-12-14T12:03:03.270Z,4.33
2018-12-14T12:05:30.761Z,5.60
2018-12-14T12:07:58.538Z,4.83
2018-12-14T12:10:26.026Z,4.87
2018-12-14T12:12:53.518Z,3.77
2018-12-14T12:15:21.015Z,4.93
2018-12-14T12:17:49.546Z,6.47
2018-12-14T12:20:17.441Z,4.43
2018-12-14T12:22:44.929Z,5.20
2018-12-14T12:25:12.432Z,4.77
2018-12-14T12:27:39.934Z,5.43
2018-12-14T12:30:09.681Z,4.77
2018-12-14T12:32:37.190Z,4.63
2018-12-14T12:35:04.879Z,5.20
2018-12-14T12:37:32.360Z,3.60
2018-12-14T12:39:59.864Z,4.60
2018-12-14T12:42:27.356Z,3.97
2018-12-14T12:44:54.855Z,4.20
2018-12-14T12:47:22.373Z,5.47
2018-12-14T12:49:49.869Z,4.07
2018-12-14T12:52:17.354Z,4.93
2018-12-14T12:54:44.917Z,4.10
2018-12-14T12:57:12.555Z,4.30
2018-12-14T12:59:40.250Z,4.53
2018-12-14T13:02:07.777Z,6.73
2018-12-14T13:04:35.546Z,5.37
2018-12-14T13:07:03.124Z,4.47
2018-12-14T13:09:30.632Z,5.50
2018-12-14T13:11:58.130Z,4.70
2018-12-14T13:14:25.628Z,4.77
2018-12-14T13:16:53.118Z,5.97
2018-12-14T13:19:20.673Z,5.87
2018-12-14T13:21:48.168Z,4.50
2018-12-14T13:24:15.678Z,4.90
2018-12-14T13:26:43.151Z,4.90
2018-12-14T13:29:10.787Z,5.73
2018-12-14T13:31:38.280Z,4.77
2018-12-14T13:34:05.774Z,5.40
2018-12-14T13:36:33.256Z,5.20
2018-12-14T13:39:00.745Z,6.77
2018-12-14T13:41:28.261Z,6.40
2018-12-14T13:43:55.760Z,5.57
2018-12-14T13:46:23.396Z,4.10
2018-12-14T13:48:50.986Z,5.33
2018-12-14T13:51:19.390Z,5.87
2018-12-14T13:53:47.110Z,6.67
2018-12-14T13:56:14.604Z,4.93
2018-12-14T13:58:42.116Z,5.73
2018-12-14T14:01:09.608Z,7.13
2018-12-14T14:03:37.267Z,5.70
2018-12-14T14:06:04.751Z,5.07
2018-12-14T14:08:32.253Z,4.50
2018-12-14T14:10:59.743Z,6.27
2018-12-14T14:13:27.234Z,5.97
2018-12-14T14:15:54.732Z,5.70
2018-12-14T14:18:22.232Z,5.40
2018-12-14T14:20:49.723Z,5.70
2018-12-14T14:23:17.402Z,7.53
2018-12-14T14:25:45.206Z,5.80
2018-12-14T14:28:12.744Z,4.93
2018-12-14T14:30:40.246Z,6.27
2018-12-14T14:33:07.824Z,5.50
2018-12-14T14:35:35.317Z,7.67
2018-12-14T14:38:02.807Z,5.43
2018-12-14T14:40:30.295Z,5.40
2018-12-14T14:42:57.791Z,5.77
2018-12-14T14:45:25.283Z,6.17
2018-12-14T14:47:52.765Z,5.60
2018-12-14T14:50:20.272Z,5.73
2018-12-14T14:52:47.754Z,6.57
2018-12-14T14:55:15.237Z,5.03
2018-12-14T14:57:43.000Z,6.30
2018-12-14T15:00:10.576Z,6.27
2018-12-14T15:02:38.145Z,5.93
2018-12-14T15:05:05.904Z,8.47
2018-12-14T15:07:33.403Z,6.97
2018-12-14T15:10:00.912Z,7.10
2018-12-14T15:12:28.401Z,7.07
2018-12-14T15:14:55.890Z,6.77
2018-12-14T15:17:23.399Z,6.97
2018-12-14T15:19:50.895Z,7.33
2018-12-14T15:22:18.393Z,7.47
2018-12-14T15:24:45.893Z,7.30
2018-12-14T15:27:13.391Z,6.23
2018-12-14T15:29:40.889Z,6.33
2018-12-14T15:32:08.446Z,6.57
2018-12-14T15:34:35.950Z,9.87
2018-12-14T15:37:03.520Z,8.33
2018-12-14T15:39:31.012Z,6.87
2018-12-14T15:41:58.500Z,5.83
2018-12-14T15:44:26.014Z,5.70
2018-12-14T15:46:53.569Z,6.20
2018-12-14T15:49:21.065Z,7.23
2018-12-14T15:51:48.567Z,5.07
2018-12-14T15:54:16.061Z,5.30
2018-12-14T15:56:43.572Z,4.40
2018-12-14T15:59:11.080Z,5.30
2018-12-14T16:01:38.575Z,7.63
2018-12-14T16:04:06.066Z,5.97
2018-12-14T16:06:33.573Z,5.43
2018-12-14T16:09:01.083Z,6.27
2018-12-14T16:11:28.574Z,6.13
2018-12-14T16:13:56.186Z,5.77
2018-12-14T16:16:23.715Z,6.40
2018-12-14T16:18:51.220Z,6.03
2018-12-14T16:21:18.780Z,7.17
2018-12-14T16:23:46.393Z,6.03
2018-12-14T16:26:13.879Z,5.13
2018-12-14T16:28:42.352Z,5.53
2018-12-14T16:31:09.839Z,4.83
2018-12-14T16:33:37.337Z,4.83
2018-12-14T16:36:04.836Z,6.50
2018-12-14T16:38:32.316Z,5.10
2018-12-14T16:40:59.811Z,5.63
2018-12-14T16:43:27.457Z,5.57
2018-12-14T16:45:54.953Z,6.63
2018-12-14T16:48:22.492Z,5.17
2018-12-14T16:50:49.986Z,5.87
2018-12-14T16:53:17.480Z,6.83
2018-12-14T16:55:44.992Z,5.77
2018-12-14T16:58:12.495Z,7.20
2018-12-14T17:00:40.128Z,6.73
2018-12-14T17:03:07.618Z,5.90
2018-12-14T17:05:35.111Z,8.17
2018-12-14T17:08:02.615Z,5.63
2018-12-14T17:10:30.125Z,4.97
2018-12-14T17:12:57.640Z,6.37
2018-12-14T17:15:25.132Z,8.23
2018-12-14T17:17:52.632Z,7.27
2018-12-14T17:20:20.135Z,6.10
2018-12-14T17:22:47.638Z,6.33
2018-12-14T17:25:15.128Z,8.77
2018-12-14T17:27:42.616Z,5.77
2018-12-14T17:30:10.267Z,7.47
2018-12-14T17:32:37.765Z,6.83
2018-12-14T17:35:05.463Z,6.83
2018-12-14T17:37:32.964Z,8.53
2018-12-14T17:40:00.541Z,7.30
2018-12-14T17:42:28.041Z,8.83
2018-12-14T17:44:55.543Z,8.47
2018-12-14T17:47:23.246Z,7.20
2018-12-14T17:49:50.752Z,7.00
2018-12-14T17:52:18.249Z,7.77
2018-12-14T17:54:45.744Z,7.73
2018-12-14T17:57:13.228Z,7.43
2018-12-14T17:59:40.738Z,7.70
2018-12-14T18:02:08.238Z,7.53
2018-12-14T18:04:35.748Z,7.93
2018-12-14T18:07:03.253Z,7.57
2018-12-14T18:09:30.747Z,7.87
2018-12-14T18:11:58.243Z,6.60
2018-12-14T18:14:25.732Z,7.50
2018-12-14T18:16:53.232Z,6.73
2018-12-14T18:19:20.947Z,7.37
2018-12-14T18:21:48.431Z,9.77
2018-12-14T18:24:15.945Z,8.00
2018-12-14T18:26:43.508Z,8.53
2018-12-14T18:29:10.999Z,13.90
2018-12-14T18:31:38.515Z,7.10
2018-12-14T18:34:06.109Z,10.90
2018-12-14T18:36:33.614Z,11.70
2018-12-14T18:39:01.122Z,16.17
2018-12-14T18:41:28.761Z,8.20
2018-12-14T18:43:56.255Z,7.67
2018-12-14T18:46:23.758Z,10.90
2018-12-14T18:48:51.268Z,11.77
2018-12-14T18:51:18.777Z,8.73
2018-12-14T18:53:49.297Z,9.93
2018-12-14T18:56:16.793Z,7.57
2018-12-14T18:58:44.303Z,10.77
2018-12-14T19:01:11.786Z,8.33
2018-12-14T19:03:40.297Z,8.13
2018-12-14T19:06:07.827Z,8.63
2018-12-14T19:08:35.308Z,8.87
2018-12-14T19:11:02.809Z,9.93
2018-12-14T19:13:30.313Z,12.03
2018-12-14T19:15:59.804Z,8.53
2018-12-14T19:18:27.338Z,9.83
2018-12-14T19:20:54.829Z,11.67
2018-12-14T19:23:22.653Z,10.30
2018-12-14T19:25:50.158Z,9.40
2018-12-14T19:28:17.658Z,8.73
2018-12-14T19:30:45.144Z,10.47
2018-12-14T19:33:12.650Z,9.60
2018-12-14T19:35:40.143Z,8.90
2018-12-14T19:38:07.647Z,10.30
2018-12-14T19:40:35.284Z,8.63
2018-12-14T19:43:02.782Z,9.77
2018-12-14T19:45:30.294Z,10.70
2018-12-14T19:47:57.782Z,9.37
2018-12-14T19:50:25.289Z,8.73
2018-12-14T19:52:52.794Z,9.10
2018-12-14T19:55:20.288Z,11.17
2018-12-14T19:57:47.788Z,10.07
2018-12-14T20:00:15.452Z,8.20
2018-12-14T20:02:42.938Z,8.60
2018-12-14T20:05:10.436Z,9.40
2018-12-14T20:07:37.935Z,8.00
2018-12-14T20:10:06.868Z,8.23
2018-12-14T20:12:34.371Z,7.33
2018-12-14T20:15:01.870Z,8.80
2018-12-14T20:17:29.469Z,10.77
2018-12-14T20:19:57.023Z,8.67
2018-12-14T20:22:24.532Z,9.27
2018-12-14T20:24:52.020Z,9.13
2018-12-14T20:27:20.255Z,10.40
2018-12-14T20:29:47.758Z,7.17
2018-12-14T20:32:15.252Z,9.57
2018-12-14T20:34:42.751Z,7.63
2018-12-14T20:37:10.254Z,8.13
2018-12-14T20:39:37.801Z,8.87
2018-12-14T20:42:05.341Z,8.90
2018-12-14T20:44:32.850Z,8.43
2018-12-14T20:47:00.351Z,9.17
2018-12-14T20:49:29.658Z,28.87
2018-12-14T20:51:57.306Z,11.13
2018-12-14T20:54:25.692Z,9.63
2018-12-14T20:56:53.190Z,6.33
2018-12-14T20:59:20.681Z,8.77
2018-12-14T21:01:48.199Z,9.17
2018-12-14T21:04:15.723Z,8.43
2018-12-14T21:06:43.211Z,8.80
2018-12-14T21:09:10.724Z,8.57
2018-12-14T21:11:38.256Z,8.77
2018-12-14T21:14:05.787Z,8.73
2018-12-14T21:16:33.289Z,8.57
2018-12-14T21:19:00.777Z,9.70
2018-12-14T21:21:28.857Z,9.27
2018-12-14T21:23:56.342Z,8.00
2018-12-14T21:26:23.831Z,8.50
2018-12-14T21:28:51.443Z,8.33
2018-12-14T21:31:18.943Z,7.53
2018-12-14T21:33:46.447Z,6.30
2018-12-14T21:36:13.955Z,8.43
2018-12-14T21:38:41.464Z,6.80
2018-12-14T21:41:08.962Z,6.90
2018-12-14T21:43:36.446Z,6.00
2018-12-14T21:46:04.020Z,6.97
2018-12-14T21:48:31.512Z,7.07
2018-12-14T21:50:59.021Z,6.00
2018-12-14T21:53:26.522Z,6.33
2018-12-14T21:55:54.039Z,8.10
2018-12-14T21:58:21.552Z,5.77
2018-12-14T22:00:49.161Z,6.50
2018-12-14T22:03:16.655Z,6.87
2018-12-14T22:05:44.148Z,6.77
2018-12-14T22:08:11.679Z,6.17
2018-12-14T22:10:39.190Z,5.60
2018-12-14T22:13:06.686Z,4.73
2018-12-14T22:15:34.263Z,5.37
2018-12-14T22:18:01.747Z,5.73
2018-12-14T22:20:29.247Z,5.37
2018-12-14T22:22:56.734Z,4.67
2018-12-14T22:25:24.458Z,4.53
2018-12-14T22:27:52.238Z,5.93
2018-12-14T22:30:19.994Z,4.60
2018-12-14T22:32:47.481Z,4.33
2018-12-14T22:35:15.012Z,4.40
2018-12-14T22:37:42.501Z,5.03
2018-12-14T22:40:10.071Z,4.37
2018-12-14T22:42:37.563Z,4.60
2018-12-14T22:45:05.515Z,5.37
2018-12-14T22:47:33.016Z,5.83
2018-12-14T22:50:00.531Z,5.20
2018-12-14T22:52:28.035Z,6.40
2018-12-14T22:54:55.535Z,7.00
2018-12-14T22:57:24.689Z,5.23
2018-12-14T22:59:52.407Z,5.73
2018-12-14T23:02:20.079Z,5.53
2018-12-14T23:04:47.635Z,4.80
2018-12-14T23:07:15.133Z,5.57
2018-12-14T23:09:42.750Z,5.00
2018-12-14T23:12:10.236Z,4.53
2018-12-14T23:14:37.739Z,5.40
2018-12-14T23:17:05.240Z,4.93
2018-12-14T23:19:32.742Z,4.33
2018-12-14T23:22:00.239Z,4.13
2018-12-14T23:24:27.896Z,6.70
2018-12-14T23:26:55.479Z,4.63
2018-12-14T23:29:22.989Z,4.50
2018-12-14T23:31:50.565Z,5.30
2018-12-14T23:34:18.054Z,5.13
2018-12-14T23:36:45.695Z,5.30
2018-12-14T23:39:13.213Z,3.50
2018-12-14T23:41:40.724Z,3.83
2018-12-14T23:44:08.217Z,3.80
2018-12-14T23:46:35.724Z,3.93
2018-12-14T23:49:03.229Z,4.33
2018-12-14T23:51:30.744Z,4.60
2018-12-14T23:53:58.233Z,3.37
2018-12-14T23:56:25.740Z,4.60
2018-12-14T23:58:53.238Z,3.53
